Terminal Aerodrome Forecast
Issued by NWS Tampa Bay Area, FL

Home | Current Version | Previous Version | Text Only | Print | Product List | Glossary On
Versions: 1 2 3 4 5 6 7 8 9 10 11 12 13 14 15 16 17 18 19 20 21 22 23 24 25 26 27 28 29 30 31 32
000
FTUS42 KTBW 060500
TAFTPA
TAF
KTPA 060531Z 0606/0706 24006KT 6SM BR SCT005 OVC010
      TEMPO 0606/0610 3SM BR BKN004 OVC010
     FM061000 33007KT 3SM BR SCT005 BKN010
     FM061100 35006KT 5SM BR SCT005 BKN015
     FM061500 02007KT P6SM SCT015 BKN030
     FM062100 02008KT P6SM VCSH SCT020 BKN030=

USA.gov is the U.S. government's official web portal to all federal, state and local government web resources and services.